Time;durP1;ratioP1;P1;durP2;ratioP2;P2;SDS_P1;SDS_P2;PMS_P1;PMS_P2;Temp;Humidity;BMP_temperature;BMP_pressure;BME280_temperature;BME280_humidity;BME280_pressure;Samples;Min_cycle;Max_cycle;Signal;HPM_P1;HPM_P2
2021/12/07 00:00:20;;;;;;;24.85;14.20;;;;;;;11.85;51.31;100303.03;5053234;28;20049;-52
2021/12/07 00:03:05;;;;;;;23.75;13.60;;;;;;;11.79;50.09;100307.09;5053245;28;20037;-52
2021/12/07 00:05:50;;;;;;;15.65;8.95;;;;;;;11.85;54.33;100313.94;5053149;28;20045;-52
2021/12/07 00:08:36;;;;;;;13.57;6.80;;;;;;;11.91;58.09;100320.78;5053160;28;20052;-52
2021/12/07 00:11:25;;;;;;;26.83;12.60;;;;;;;11.79;54.22;100328.88;5056007;28;20044;-52
2021/12/07 00:14:13;;;;;;;20.35;11.07;;;;;;;11.83;57.37;100321.66;5052999;28;20045;-52
2021/12/07 00:16:58;;;;;;;24.80;11.52;;;;;;;11.86;60.91;100323.72;5052884;28;20041;-53
2021/12/07 00:19:43;;;;;;;;;;;;;;;11.95;63.85;100332.59;5035290;28;20037;-53
2021/12/07 00:22:27;;;;;;;10.93;5.32;;;;;;;12.04;64.73;100329.03;5032825;28;19913;-52
2021/12/07 00:25:13;;;;;;;16.48;8.30;;;;;;;12.04;64.92;100323.56;5032727;28;20049;-52
2021/12/07 00:27:59;;;;;;;7.57;5.05;;;;;;;12.09;65.26;100313.22;5033153;28;20492;-53
2021/12/07 00:30:44;;;;;;;9.60;4.55;;;;;;;12.14;66.75;100313.03;5032493;28;20052;-52
2021/12/07 00:36:14;;;;;;;8.57;5.90;;;;;;;12.11;64.91;100316.44;5038264;28;20056;-53
2021/12/07 00:38:59;;;;;;;11.18;4.63;;;;;;;12.13;65.90;100316.91;5034992;28;20052;-53
2021/12/07 00:41:44;;;;;;;;;;;;;;;12.15;66.30;100319.28;5052733;28;20075;-53
2021/12/07 00:44:29;;;;;;;9.07;5.95;;;;;;;12.14;66.58;100317.72;5049857;28;19912;-53
2021/12/07 00:47:15;;;;;;;7.78;4.22;;;;;;;12.19;67.64;100317.50;5032355;28;20056;-53
2021/12/07 00:49:59;;;;;;;8.55;4.88;;;;;;;12.22;68.47;100316.81;5032429;28;20052;-52
2021/12/07 00:52:44;;;;;;;5.95;2.70;;;;;;;12.24;68.78;100314.56;5032315;28;20060;-53
2021/12/07 00:55:32;;;;;;;8.60;3.55;;;;;;;12.25;68.73;100324.31;5037951;28;20048;-53
2021/12/07 00:58:22;;;;;;;17.40;11.60;;;;;;;12.18;67.18;100335.78;5037858;28;20064;-53
2021/12/07 01:01:14;;;;;;;13.30;9.70;;;;;;;12.14;64.63;100323.16;5040416;22;20045;-60
2021/12/07 01:03:59;;;;;;;23.35;13.43;;;;;;;11.99;54.55;100311.72;5021775;28;20053;-60
2021/12/07 01:24:39;;;;;;;18.40;10.75;;;;;;;11.86;49.88;100287.50;5012871;28;20488;-59
2021/12/07 01:24:59;;;;;;;7.50;4.30;;;;;;;11.85;65.15;100311.22;4990874;28;20440;-59
2021/12/07 01:27:49;;;;;;;7.97;3.50;;;;;;;11.96;67.04;100320.56;4995503;28;20053;-60
2021/12/07 01:30:53;;;;;;;6.13;4.15;;;;;;;11.99;68.24;100325.34;4973221;28;20050;-60
2021/12/07 02:00:28;;;;;;;8.43;3.13;;;;;;;12.18;70.59;100333.06;5009777;28;20049;-59
2021/12/07 02:03:13;;;;;;;5.53;3.40;;;;;;;12.17;70.84;100331.44;4996265;28;20045;-59
2021/12/07 02:05:58;;;;;;;7.13;3.38;;;;;;;12.16;70.19;100332.59;4999305;28;20073;-59
2021/12/07 02:08:44;;;;;;;7.70;4.00;;;;;;;12.10;69.74;100327.66;5027213;28;20061;-60
2021/12/07 02:11:28;;;;;;;;;;;;;;;12.07;69.04;100340.03;5001442;28;20045;-60
2021/12/07 02:14:17;;;;;;;8.38;3.65;;;;;;;12.02;66.27;100337.53;5012855;28;19922;-59
2021/12/07 02:17:12;;;;;;;12.68;4.45;;;;;;;12.04;67.96;100342.66;4996701;28;20051;-59
2021/12/07 02:19:58;;;;;;;8.00;4.18;;;;;;;12.02;67.84;100334.00;5013562;28;20069;-59
2021/12/07 02:22:43;;;;;;;5.35;3.40;;;;;;;12.00;69.71;100335.13;5000427;28;20053;-59
2021/12/07 02:25:31;;;;;;;7.45;3.25;;;;;;;12.03;70.86;100322.78;5005140;28;20057;-59
2021/12/07 02:28:17;;;;;;;5.15;3.15;;;;;;;12.04;71.16;100324.34;5000938;28;20069;-58
2021/12/07 02:31:02;;;;;;;6.50;3.63;;;;;;;12.04;71.46;100326.28;4978829;28;20123;-58
2021/12/07 02:33:48;;;;;;;5.22;2.88;;;;;;;12.04;71.05;100309.94;4976280;28;20499;-58
2021/12/07 02:36:35;;;;;;;9.90;4.40;;;;;;;11.88;61.49;100305.13;5000569;28;20045;-59
2021/12/07 02:39:33;;;;;;;9.88;5.53;;;;;;;11.81;58.90;100295.88;5000612;28;20053;-59
2021/12/07 02:42:21;;;;;;;8.95;4.78;;;;;;;11.80;63.65;100292.34;4993806;28;20041;-59
2021/12/07 02:45:06;;;;;;;7.47;3.63;;;;;;;11.78;62.55;100289.19;5000041;28;20057;-59
2021/12/07 02:47:51;;;;;;;6.53;3.88;;;;;;;11.81;65.60;100284.97;5012872;28;20057;-59
2021/12/07 02:50:36;;;;;;;10.98;4.05;;;;;;;11.71;61.28;100277.97;5004080;28;20509;-59
2021/12/07 02:53:26;;;;;;;11.27;3.70;;;;;;;11.75;64.06;100273.47;5006369;28;20100;-59
2021/12/07 02:56:11;;;;;;;7.82;4.03;;;;;;;11.81;68.96;100282.25;4990791;28;20488;-59
2021/12/07 02:59:01;;;;;;;7.22;3.90;;;;;;;11.87;70.48;100287.16;5008659;28;20049;-59
2021/12/07 03:01:55;;;;;;;5.00;3.58;;;;;;;11.89;70.79;100300.44;5009756;28;20049;-59
2021/12/07 03:04:50;;;;;;;7.78;3.70;;;;;;;11.91;71.21;100311.81;4975494;28;20402;-59
2021/12/07 03:28:29;;;;;;;5.97;3.78;;;;;;;11.78;71.12;100318.34;4987827;28;20509;-58
2021/12/07 03:31:16;;;;;;;9.50;4.40;;;;;;;11.83;71.54;100313.50;4991318;28;20119;-58
2021/12/07 03:34:04;;;;;;;5.32;3.45;;;;;;;11.83;72.09;100312.69;5004295;28;20053;-58
2021/12/07 03:36:52;;;;;;;6.65;3.63;;;;;;;11.83;72.40;100308.03;5012405;28;20153;-59
2021/12/07 03:39:37;;;;;;;4.70;2.92;;;;;;;11.84;72.75;100308.81;5010441;28;20053;-59
2021/12/07 03:42:22;;;;;;;2.97;2.28;;;;;;;11.82;72.92;100306.44;4993423;28;20508;-59
2021/12/07 03:45:08;;;;;;;3.83;2.85;;;;;;;11.81;72.89;100299.38;4988690;28;20069;-59
2021/12/07 03:47:55;;;;;;;2.80;1.70;;;;;;;11.74;68.66;100287.41;5010700;28;20041;-59
2021/12/07 03:50:41;;;;;;;2.80;1.58;;;;;;;11.59;62.45;100284.16;4994081;28;20122;-60
2021/12/07 03:53:29;;;;;;;3.35;1.92;;;;;;;11.64;65.70;100282.34;4993636;28;20046;-59
2021/12/07 03:56:15;;;;;;;3.78;2.38;;;;;;;11.56;66.77;100290.28;5010371;28;20045;-59
2021/12/07 03:59:03;;;;;;;3.22;2.15;;;;;;;11.53;62.66;100290.91;4994621;28;20053;-59
2021/12/07 04:01:51;;;;;;;4.53;3.10;;;;;;;11.59;68.91;100291.50;4994604;28;20053;-59
2021/12/07 04:04:37;;;;;;;4.20;2.63;;;;;;;11.63;70.54;100303.34;4996400;28;20497;-59
2021/12/07 04:07:22;;;;;;;3.58;1.73;;;;;;;11.59;69.60;100308.66;4993784;28;20073;-59
2021/12/07 04:10:11;;;;;;;3.13;2.40;;;;;;;11.65;70.87;100311.97;4998139;28;20505;-59
2021/12/07 04:12:56;;;;;;;8.48;2.80;;;;;;;11.71;72.98;100316.09;4993249;28;20054;-59
2021/12/07 04:15:41;;;;;;;4.60;3.03;;;;;;;11.76;72.48;100313.22;4993619;28;20500;-58
2021/12/07 04:18:28;;;;;;;5.22;3.15;;;;;;;11.78;73.13;100315.63;4997043;28;20053;-59
2021/12/07 04:21:13;;;;;;;7.15;2.83;;;;;;;11.78;73.25;100315.63;4995943;28;20521;-58
2021/12/07 04:23:58;;;;;;;;;;;;;;;11.78;73.40;100332.75;4994227;28;20057;-59
2021/12/07 04:26:43;;;;;;;5.85;3.20;;;;;;;11.78;74.14;100337.41;5006101;28;19922;-59
2021/12/07 04:29:28;;;;;;;;;;;;;;;11.82;74.33;100341.84;4993882;28;20049;-59
2021/12/07 04:32:12;;;;;;;4.30;2.83;;;;;;;11.80;73.94;100341.38;4993892;28;19913;-59
2021/12/07 04:34:57;;;;;;;;;;;;;;;11.80;74.16;100354.19;4985794;28;20074;-60
2021/12/07 04:37:42;;;;;;;4.35;2.67;;;;;;;11.78;74.43;100359.19;4993142;28;19913;-60
2021/12/07 04:40:30;;;;;;;5.20;3.00;;;;;;;11.83;74.51;100365.25;4996153;28;20037;-59
2021/12/07 04:43:15;;;;;;;5.18;3.45;;;;;;;11.86;74.52;100370.03;4997613;28;20069;-59
2021/12/07 04:46:30;;;;;;;3.50;2.25;;;;;;;11.84;74.63;100361.38;4995960;28;20049;-59
2021/12/07 04:58:01;;;;;;;6.18;2.38;;;;;;;11.80;74.61;100346.03;4973538;28;20046;-59
2021/12/07 05:00:46;;;;;;;4.22;2.08;;;;;;;11.72;74.84;100349.59;4991083;28;20054;-59
2021/12/07 05:03:31;;;;;;;6.35;1.75;;;;;;;11.68;75.29;100354.91;4992827;28;20069;-59
2021/12/07 05:06:17;;;;;;;4.57;2.70;;;;;;;11.65;74.96;100358.28;4992555;28;20045;-59
2021/12/07 05:09:21;;;;;;;4.50;2.40;;;;;;;11.63;75.17;100348.88;4992093;28;20049;-59
2021/12/07 05:14:59;;;;;;;3.95;1.98;;;;;;;11.57;74.96;100340.09;5000021;28;20045;-59
2021/12/07 05:38:53;;;;;;;6.43;4.13;;;;;;;10.70;52.90;100364.19;4996178;28;20045;-58
2021/12/07 05:41:38;;;;;;;6.95;2.72;;;;;;;10.73;54.20;100366.25;4992663;28;20053;-60
2021/12/07 05:44:23;;;;;;;4.10;2.75;;;;;;;10.84;53.17;100363.97;5005062;28;20049;-59
2021/12/07 05:47:08;;;;;;;6.53;3.10;;;;;;;10.89;54.66;100366.53;4998021;28;20080;-58
2021/12/07 05:49:52;;;;;;;6.80;3.65;;;;;;;10.91;54.26;100367.00;4990364;28;20049;-59
2021/12/07 05:52:37;;;;;;;;;;;;;;;10.87;58.14;100357.88;4987345;28;20050;-58
2021/12/07 05:55:22;;;;;;;9.10;4.55;;;;;;;10.82;54.84;100354.56;4991892;28;20369;-60
2021/12/07 05:58:12;;;;;;;8.25;4.60;;;;;;;10.82;55.14;100362.72;4991748;28;20049;-58
2021/12/07 06:00:58;;;;;;;7.05;5.22;;;;;;;10.75;54.24;100370.56;4992522;28;20050;-59
2021/12/07 06:03:42;;;;;;;8.60;5.20;;;;;;;10.78;53.52;100369.91;4991890;28;20046;-59
2021/12/07 06:06:27;;;;;;;16.40;7.55;;;;;;;6.72;47.15;100354.56;4995826;28;20041;-59
2021/12/07 06:09:12;;;;;;;11.32;6.00;;;;;;;4.10;54.09;100373.84;4992486;28;20049;-58
2021/12/07 06:11:57;;;;;;;9.35;5.07;;;;;;;3.66;55.50;100373.03;4992091;28;20049;-59
2021/12/07 06:14:44;;;;;;;11.73;6.13;;;;;;;4.22;54.97;100376.16;4987904;28;20433;-59
2021/12/07 06:17:28;;;;;;;20.45;8.45;;;;;;;3.35;57.68;100381.25;4972689;28;20045;-58
2021/12/07 06:20:14;;;;;;;12.77;5.70;;;;;;;2.71;59.81;100388.44;4991640;28;20054;-58
2021/12/07 06:23:00;;;;;;;14.32;7.13;;;;;;;3.30;57.09;100392.03;4995279;28;20061;-58
2021/12/07 06:25:46;;;;;;;13.75;6.75;;;;;;;3.42;56.78;100397.91;4995022;28;20049;-58
2021/12/07 06:28:32;;;;;;;25.58;11.82;;;;;;;3.59;58.24;100396.75;4987484;28;20050;-58
2021/12/07 06:31:17;;;;;;;28.02;11.25;;;;;;;3.27;57.75;100394.47;4987547;28;20053;-58
2021/12/07 06:34:02;;;;;;;14.30;7.32;;;;;;;3.45;56.44;100394.66;4989010;28;20433;-58
2021/12/07 06:36:47;;;;;;;17.05;7.50;;;;;;;2.89;57.41;100388.69;4990498;28;20046;-58
2021/12/07 06:39:33;;;;;;;;;;;;;;;3.16;56.66;100391.00;4991814;28;20500;-58
2021/12/07 06:42:17;;;;;;;13.75;6.25;;;;;;;3.38;57.02;100398.72;4992824;28;20381;-58
2021/12/07 06:45:03;;;;;;;15.50;6.32;;;;;;;3.57;57.89;100396.22;4994889;28;20065;-59
2021/12/07 06:47:48;;;;;;;23.80;8.25;;;;;;;3.65;56.00;100396.47;4995085;28;20197;-57
2021/12/07 06:50:34;;;;;;;35.97;5.82;;;;;;;3.69;60.51;100394.81;4995069;28;20061;-56
2021/12/07 06:53:19;;;;;;;44.80;9.75;;;;;;;4.76;72.04;100413.66;4995274;28;20405;-57
2021/12/07 06:56:06;;;;;;;32.80;7.28;;;;;;;5.32;74.23;100407.69;4995070;28;20045;-57
2021/12/07 06:58:50;;;;;;;47.95;7.50;;;;;;;5.73;76.10;100410.66;4994985;28;20069;-56
2021/12/07 07:01:35;;;;;;;25.40;5.30;;;;;;;6.07;76.86;100410.50;5010725;23;20053;-57
2021/12/07 07:04:20;;;;;;;31.85;6.80;;;;;;;6.34;77.68;100416.03;5012479;28;20428;-56
2021/12/07 07:07:05;;;;;;;26.85;6.18;;;;;;;6.58;77.80;100416.69;5014278;28;20041;-57
2021/12/07 07:09:51;;;;;;;16.67;4.97;;;;;;;6.81;77.82;100418.44;5014434;28;20060;-56
2021/12/07 07:12:36;;;;;;;19.98;4.97;;;;;;;7.01;77.42;100432.72;4994755;28;20512;-56
2021/12/07 07:15:21;;;;;;;16.55;5.25;;;;;;;7.09;72.70;100437.41;4994832;28;20401;-57
2021/12/07 07:18:06;;;;;;;16.88;4.60;;;;;;;7.35;76.87;100443.16;4994789;28;20045;-57
2021/12/07 07:20:51;;;;;;;6.88;3.90;;;;;;;7.50;76.90;100437.44;4994656;28;20049;-56
2021/12/07 07:23:38;;;;;;;19.40;4.63;;;;;;;7.65;78.16;100451.47;4994720;28;20511;-57
2021/12/07 07:26:23;;;;;;;15.75;4.93;;;;;;;7.82;77.92;100450.06;4994385;28;20045;-57
2021/12/07 07:29:08;;;;;;;18.13;4.65;;;;;;;7.97;78.33;100452.44;4994539;28;20069;-57
2021/12/07 07:31:53;;;;;;;10.02;3.45;;;;;;;8.06;78.41;100445.97;4994679;28;20053;-56
2021/12/07 07:34:38;;;;;;;10.57;4.13;;;;;;;8.15;78.94;100449.56;4995974;28;20049;-57
2021/12/07 07:37:23;;;;;;;17.05;4.35;;;;;;;8.19;78.97;100466.00;4994264;28;20401;-57
2021/12/07 07:40:11;;;;;;;13.85;4.05;;;;;;;8.27;78.68;100456.34;4990381;28;20049;-57
2021/12/07 07:42:56;;;;;;;12.45;4.38;;;;;;;8.33;77.83;100455.94;4987663;28;20053;-57
2021/12/07 07:45:53;;;;;;;13.73;4.70;;;;;;;8.45;78.59;100464.34;4989694;28;20050;-57
2021/12/07 07:48:39;;;;;;;19.02;3.50;;;;;;;8.53;78.91;100471.72;4984386;28;20398;-57
2021/12/07 07:51:23;;;;;;;9.23;3.00;;;;;;;8.62;78.16;100471.00;4987337;28;20053;-57
2021/12/07 07:54:09;;;;;;;7.93;2.80;;;;;;;8.63;75.93;100480.75;4989395;28;20401;-57
2021/12/07 07:56:56;;;;;;;14.77;4.35;;;;;;;8.67;76.56;100473.59;4993566;28;20046;-57
2021/12/07 07:59:41;;;;;;;13.90;4.60;;;;;;;8.76;76.44;100469.03;4993862;28;20058;-57
2021/12/07 08:02:26;;;;;;;13.35;3.85;;;;;;;8.87;77.16;100467.66;4992567;28;20417;-57
2021/12/07 08:05:12;;;;;;;7.72;3.22;;;;;;;8.96;77.54;100468.50;4993603;28;20053;-57
2021/12/07 08:07:56;;;;;;;19.15;5.20;;;;;;;9.02;77.74;100472.72;4993023;28;20042;-58
2021/12/07 08:10:41;;;;;;;23.30;5.30;;;;;;;9.10;77.79;100469.22;4993761;28;20046;-58
2021/12/07 08:13:27;;;;;;;21.50;4.40;;;;;;;9.14;77.68;100475.66;4992679;28;20041;-57
2021/12/07 08:16:17;;;;;;;18.35;3.90;;;;;;;9.20;77.83;100479.81;4988584;28;21087;-57
2021/12/07 08:19:02;;;;;;;16.42;5.38;;;;;;;9.23;77.60;100479.22;4989247;28;20045;-57
2021/12/07 08:21:50;;;;;;;14.73;6.65;;;;;;;9.27;77.32;100482.09;4993273;28;20061;-57
2021/12/07 08:24:35;;;;;;;30.55;5.75;;;;;;;9.27;77.30;100482.09;4985543;28;20038;-57
2021/12/07 08:27:20;;;;;;;11.77;3.80;;;;;;;9.34;77.00;100488.69;4985550;28;20041;-57
2021/12/07 08:30:08;;;;;;;20.23;5.82;;;;;;;9.39;76.86;100485.84;4993168;28;20073;-58
2021/12/07 08:32:52;;;;;;;12.57;5.45;;;;;;;9.41;76.67;100480.06;4993272;28;20057;-58
2021/12/07 08:35:38;;;;;;;12.90;4.68;;;;;;;9.44;76.49;100480.25;4989234;28;20053;-58
2021/12/07 08:38:24;;;;;;;10.93;5.72;;;;;;;9.49;76.17;100475.81;4991579;28;20041;-57
2021/12/07 08:41:09;;;;;;;25.90;4.75;;;;;;;9.51;76.31;100485.22;4992993;28;20049;-57
2021/12/07 08:43:54;;;;;;;18.58;5.45;;;;;;;9.53;76.22;100493.06;4992756;28;20065;-58
2021/12/07 08:46:39;;;;;;;9.00;3.67;;;;;;;9.56;75.90;100492.41;4989499;28;20061;-57
2021/12/07 08:49:24;;;;;;;10.90;4.75;;;;;;;9.62;75.55;100499.31;4992923;28;20073;-57
2021/12/07 08:52:09;;;;;;;9.88;4.05;;;;;;;9.63;75.55;100503.63;4991525;28;20053;-57
2021/12/07 09:01:01;;;;;;;11.23;4.68;;;;;;;9.73;75.10;100495.22;4987138;28;20097;-58
2021/12/07 09:03:48;;;;;;;12.63;5.45;;;;;;;9.75;75.13;100499.19;4983649;28;20065;-57
2021/12/07 09:06:33;;;;;;;13.15;5.35;;;;;;;9.78;74.97;100508.63;4986725;28;20045;-57
2021/12/07 09:09:18;;;;;;;9.20;4.80;;;;;;;9.79;74.89;100513.75;4992769;28;20540;-57
2021/12/07 09:12:04;;;;;;;;;;;;;;;9.81;74.86;100514.22;4991666;28;20521;-57
2021/12/07 09:14:52;;;;;;;13.57;4.10;;;;;;;9.82;74.86;100510.41;4987510;28;19913;-57
2021/12/07 09:17:37;;;;;;;10.55;4.93;;;;;;;9.86;74.79;100516.00;4991856;28;20061;-57
2021/12/07 09:20:22;;;;;;;8.45;3.58;;;;;;;9.91;74.35;100515.06;4992435;28;20049;-57
2021/12/07 09:23:07;;;;;;;11.13;3.78;;;;;;;9.94;73.95;100517.97;4992507;28;20544;-58
2021/12/07 09:25:53;;;;;;;15.63;5.18;;;;;;;9.98;73.48;100527.06;4992607;28;20397;-57
2021/12/07 09:28:39;;;;;;;16.17;5.68;;;;;;;10.01;73.38;100529.16;4992593;28;20433;-57
2021/12/07 09:31:25;;;;;;;12.88;5.55;;;;;;;10.04;73.49;100531.25;4992319;28;20053;-57
2021/12/07 09:34:11;;;;;;;9.65;4.93;;;;;;;10.05;73.32;100541.00;4992420;28;20054;-57
2021/12/07 09:36:56;;;;;;;12.15;4.43;;;;;;;10.08;73.13;100540.34;4992278;28;20045;-57
2021/12/07 09:39:41;;;;;;;12.52;4.05;;;;;;;10.09;72.94;100539.25;4985886;28;20061;-57
2021/12/07 09:42:26;;;;;;;;;;;;;;;10.13;72.73;100529.34;4984765;28;20528;-57
2021/12/07 09:45:13;;;;;;;14.55;5.88;;;;;;;10.13;72.99;100529.34;4987004;28;19921;-57
2021/12/07 09:47:59;;;;;;;13.00;6.15;;;;;;;10.15;72.97;100524.41;4992335;28;20118;-57
2021/12/07 09:50:47;;;;;;;12.23;6.05;;;;;;;10.18;73.16;100520.28;4992222;28;20413;-57
2021/12/07 09:53:32;;;;;;;12.70;7.35;;;;;;;10.20;73.33;100528.91;4991877;28;20544;-57
2021/12/07 09:56:20;;;;;;;23.88;6.53;;;;;;;10.24;72.94;100527.97;4986158;28;20049;-57
2021/12/07 09:59:06;;;;;;;18.52;8.77;;;;;;;10.26;72.98;100527.63;4992164;28;20037;-58
2021/12/07 10:01:51;;;;;;;18.92;9.25;;;;;;;10.26;72.63;100528.44;4992972;28;20049;-57
2021/12/07 10:04:36;;;;;;;15.15;6.57;;;;;;;10.29;71.53;100527.81;4992154;28;20045;-57
2021/12/07 10:07:21;;;;;;;20.83;7.50;;;;;;;10.33;71.00;100517.09;4991848;28;20532;-57
2021/12/07 10:10:19;;;;;;;19.95;9.02;;;;;;;10.35;70.38;100519.50;4992013;28;20045;-57
2021/12/07 10:13:08;;;;;;;26.50;11.73;;;;;;;10.36;70.15;100510.25;4992204;28;20509;-58
2021/12/07 10:15:53;;;;;;;25.15;10.57;;;;;;;10.35;70.00;100509.44;4994032;28;20042;-57
2021/12/07 10:18:42;;;;;;;31.52;13.50;;;;;;;10.37;69.87;100518.06;4995884;28;20042;-58
2021/12/07 10:21:31;;;;;;;21.60;11.18;;;;;;;10.44;68.11;100515.69;4995681;28;20042;-58
2021/12/07 10:24:21;;;;;;;29.15;11.40;;;;;;;10.42;67.34;100506.22;4994951;28;20038;-57
2021/12/07 10:27:07;;;;;;;31.08;13.32;;;;;;;10.46;67.97;100497.13;4985373;28;20038;-57
2021/12/07 10:29:52;;;;;;;37.17;15.02;;;;;;;11.22;68.29;100493.84;4995357;28;20054;-59
2021/12/07 10:32:40;;;;;;;18.20;8.38;;;;;;;12.05;61.40;100488.66;4994708;28;20042;-60
2021/12/07 10:35:29;;;;;;;22.58;5.68;;;;;;;12.54;54.03;100487.03;4976643;28;20054;-60
2021/12/07 10:38:17;;;;;;;6.15;2.78;;;;;;;12.96;48.25;100483.09;4995145;28;20061;-60
2021/12/07 10:41:08;;;;;;;4.95;2.28;;;;;;;13.21;46.54;100497.63;4994884;28;20568;-60
2021/12/07 10:44:03;;;;;;;14.10;2.35;;;;;;;13.62;46.55;100500.22;4995486;28;20061;-60
2021/12/07 10:46:50;;;;;;;7.47;2.10;;;;;;;13.91;43.65;100496.47;4994895;28;20057;-60
2021/12/07 10:49:59;;;;;;;5.55;2.50;;;;;;;13.16;40.82;100489.66;4995300;28;20054;-58
2021/12/07 10:52:45;;;;;;;17.15;2.03;;;;;;;12.71;44.37;100505.97;4989867;28;20053;-58
2021/12/07 10:55:30;;;;;;;10.32;2.25;;;;;;;12.28;43.94;100487.25;4986814;28;20049;-58
2021/12/07 10:58:15;;;;;;;6.63;2.60;;;;;;;12.08;46.28;100497.00;4991440;28;20041;-58
2021/12/07 11:01:00;;;;;;;5.90;1.60;;;;;;;11.92;47.80;100494.03;4992889;28;20089;-58
2021/12/07 11:03:45;;;;;;;2.63;1.52;;;;;;;11.78;48.18;100479.06;4994883;28;20748;-58
2021/12/07 11:06:30;;;;;;;6.75;1.33;;;;;;;11.65;47.09;100469.16;4997649;28;20045;-58
2021/12/07 11:09:15;;;;;;;;;;;;;;;11.64;49.31;100456.66;4994447;28;20049;-59
2021/12/07 11:12:08;;;;;;;8.10;1.73;;;;;;;11.53;48.86;100431.72;4994669;28;19918;-59
2021/12/07 11:14:59;;;;;;;3.78;1.67;;;;;;;11.47;48.29;100433.84;4994814;28;20049;-58
2021/12/07 11:17:45;;;;;;;2.05;1.20;;;;;;;11.37;47.40;100441.59;4992233;28;20042;-59
2021/12/07 11:20:30;;;;;;;4.45;1.42;;;;;;;11.34;48.34;100439.50;4995946;28;20061;-58
2021/12/07 11:23:26;;;;;;;3.33;1.60;;;;;;;11.38;49.62;100432.25;4992973;28;20049;-58
2021/12/07 11:32:08;;;;;;;4.10;2.33;;;;;;;11.53;50.26;100462.47;4992476;28;20057;-58
2021/12/07 11:34:54;;;;;;;3.03;1.35;;;;;;;11.60;52.00;100467.41;4993472;28;20061;-58
2021/12/07 11:37:40;;;;;;;2.47;1.13;;;;;;;11.49;48.66;100461.53;4994265;28;20046;-58
2021/12/07 11:40:29;;;;;;;4.55;1.15;;;;;;;11.54;47.06;100441.47;4989480;28;20512;-58
2021/12/07 11:43:18;;;;;;;6.07;1.17;;;;;;;11.56;49.09;100440.03;4988704;28;20045;-58
2021/12/07 11:46:18;;;;;;;3.25;1.20;;;;;;;11.65;49.64;100437.25;4992588;28;20042;-58
2021/12/07 11:49:10;;;;;;;2.80;1.80;;;;;;;11.68;47.70;100433.09;4992482;28;20413;-58
2021/12/07 11:51:59;;;;;;;3.53;1.15;;;;;;;11.62;47.20;100442.59;4987289;28;20059;-58
2021/12/07 11:54:43;;;;;;;4.45;1.30;;;;;;;11.56;46.91;100433.78;4986253;28;20401;-58
2021/12/07 11:57:28;;;;;;;1.27;0.68;;;;;;;11.59;47.51;100430.41;4985942;28;20046;-58
2021/12/07 12:00:18;;;;;;;3.53;0.70;;;;;;;11.67;46.97;100417.88;4990267;28;20065;-58
2021/12/07 12:03:09;;;;;;;2.72;1.08;;;;;;;11.70;47.10;100418.00;4988839;28;20050;-58
2021/12/07 12:05:54;;;;;;;1.63;0.93;;;;;;;11.68;46.14;100411.31;4993516;28;20053;-57
2021/12/07 12:08:40;;;;;;;3.50;0.95;;;;;;;11.65;45.52;100404.59;4993880;28;20061;-58
2021/12/07 12:11:39;;;;;;;2.05;1.02;;;;;;;11.71;46.38;100406.00;4992871;28;20057;-58
2021/12/07 12:14:46;;;;;;;3.22;1.13;;;;;;;11.72;46.09;100396.69;4986612;28;20053;-59
2021/12/07 12:17:48;;;;;;;1.77;1.10;;;;;;;11.68;45.47;100387.59;4987989;28;20122;-57
2021/12/07 12:20:56;;;;;;;2.05;1.10;;;;;;;11.67;46.29;100379.75;4990698;28;20049;-58
2021/12/07 12:24:06;;;;;;;3.65;1.15;;;;;;;11.68;46.43;100379.44;4992568;28;20053;-58
2021/12/07 12:27:15;;;;;;;1.60;0.95;;;;;;;11.77;46.62;100374.75;4988733;28;20045;-58
2021/12/07 12:30:26;;;;;;;1.75;1.10;;;;;;;11.79;46.98;100361.56;4986675;28;20061;-58
2021/12/07 12:33:14;;;;;;;5.47;2.20;;;;;;;11.81;46.93;100356.59;4986925;28;20406;-58
2021/12/07 12:35:59;;;;;;;21.35;9.02;;;;;;;11.79;45.81;100358.03;4983752;28;20057;-58
2021/12/07 12:39:07;;;;;;;15.05;4.60;;;;;;;11.87;46.85;100349.81;4982596;28;20041;-58
2021/12/07 12:42:01;;;;;;;9.40;3.75;;;;;;;11.86;46.34;100348.22;4986457;28;20046;-58
2021/12/07 12:44:46;;;;;;;6.63;3.47;;;;;;;11.86;46.09;100348.22;4981778;28;20045;-58
2021/12/07 12:47:32;;;;;;;3.67;1.75;;;;;;;11.74;43.69;100342.69;4983043;28;20049;-58
2021/12/07 12:50:23;;;;;;;2.88;1.83;;;;;;;11.73;43.29;100335.69;4986383;28;20057;-59
2021/12/07 12:53:12;;;;;;;2.75;1.73;;;;;;;11.85;44.25;100341.19;4984022;28;20049;-58
2021/12/07 12:56:10;;;;;;;6.28;1.55;;;;;;;11.87;44.31;100341.66;4990849;28;20061;-59
2021/12/07 12:58:57;;;;;;;9.52;3.50;;;;;;;11.82;43.03;100344.56;4990083;28;20041;-59
2021/12/07 13:01:45;;;;;;;6.70;1.98;;;;;;;11.86;41.76;100336.53;4992645;28;20064;-58
2021/12/07 13:04:31;;;;;;;6.00;2.83;;;;;;;11.98;44.77;100337.41;5024428;22;20064;-56
2021/12/07 13:07:27;;;;;;;6.95;2.03;;;;;;;12.08;45.73;100344.38;5031839;28;20060;-56
2021/12/07 13:10:12;;;;;;;69.97;12.18;;;;;;;12.12;46.43;100358.13;5032503;28;20064;-56
2021/12/07 13:12:57;;;;;;;;;;;;;;;12.22;48.15;100360.44;5032916;28;20049;-56
2021/12/07 13:15:44;;;;;;;73.15;12.35;;;;;;;12.25;44.05;100362.47;5032448;28;20180;-56
2021/12/07 13:18:32;;;;;;;62.83;11.60;;;;;;;12.34;45.41;100365.94;5031245;28;20504;-56
2021/12/07 13:21:23;;;;;;;46.92;8.20;;;;;;;12.48;47.17;100361.00;5030007;28;20500;-58
2021/12/07 13:24:20;;;;;;;40.53;8.95;;;;;;;12.60;48.58;100361.00;5031906;28;20049;-56
2021/12/07 13:27:12;;;;;;;18.48;5.70;;;;;;;12.73;46.99;100353.66;5028330;28;20056;-56
2021/12/07 13:29:56;;;;;;;41.75;5.40;;;;;;;12.82;46.52;100355.16;5027209;28;20060;-56
2021/12/07 13:33:05;;;;;;;21.90;3.38;;;;;;;13.01;46.88;100353.78;5028916;28;20060;-57
2021/12/07 13:35:52;;;;;;;24.70;4.80;;;;;;;13.07;45.04;100353.25;5012272;28;20053;-56
2021/12/07 13:38:36;;;;;;;17.65;4.35;;;;;;;13.18;47.36;100357.16;5012390;28;20061;-56
2021/12/07 13:41:21;;;;;;;14.18;4.50;;;;;;;13.31;48.46;100349.72;5012501;28;20069;-56
2021/12/07 13:44:10;;;;;;;7.68;2.47;;;;;;;13.42;47.53;100345.41;5012777;28;20397;-56
2021/12/07 13:46:58;;;;;;;20.25;4.10;;;;;;;13.53;46.75;100348.47;5014565;28;20049;-57
2021/12/07 13:49:47;;;;;;;15.45;3.42;;;;;;;13.65;48.26;100346.53;5012696;28;20520;-56
2021/12/07 13:52:35;;;;;;;15.25;3.50;;;;;;;13.79;48.57;100348.88;5016531;28;20049;-56
2021/12/07 13:55:25;;;;;;;12.63;3.47;;;;;;;13.86;45.38;100356.50;5016452;28;20068;-56
2021/12/07 13:58:11;;;;;;;3.33;2.00;;;;;;;13.92;42.53;100346.91;5016574;28;20045;-56
2021/12/07 14:00:57;;;;;;;7.60;1.98;;;;;;;13.99;43.27;100358.06;5016368;28;20049;-56
2021/12/07 14:03:43;;;;;;;5.80;1.80;;;;;;;14.12;42.92;100356.84;5016179;28;20405;-57
2021/12/07 14:06:28;;;;;;;8.45;2.58;;;;;;;14.26;45.47;100362.75;5015965;28;20401;-56
2021/12/07 14:09:16;;;;;;;9.93;3.67;;;;;;;14.38;46.06;100357.22;5016082;28;20508;-56
2021/12/07 14:12:01;;;;;;;13.48;6.43;;;;;;;14.48;45.00;100355.94;5016060;28;20053;-57
2021/12/07 14:14:46;;;;;;;11.98;6.55;;;;;;;14.50;43.29;100357.19;5016017;28;20049;-56
2021/12/07 14:17:50;;;;;;;10.85;4.45;;;;;;;14.64;43.55;100356.75;5015992;28;20049;-57
2021/12/07 14:20:41;;;;;;;14.70;6.63;;;;;;;14.69;42.56;100364.72;5015991;28;20110;-56
2021/12/07 14:23:30;;;;;;;14.00;5.60;;;;;;;14.84;45.17;100363.13;5016079;28;20049;-56
2021/12/07 14:26:25;;;;;;;12.52;7.90;;;;;;;14.81;43.72;100367.38;5015916;28;20049;-57
2021/12/07 14:29:14;;;;;;;11.90;6.17;;;;;;;14.96;44.23;100369.34;5015894;28;20053;-57
2021/12/07 14:31:59;;;;;;;12.38;6.07;;;;;;;15.00;44.30;100374.91;5015864;28;20065;-56
2021/12/07 14:34:45;;;;;;;15.35;6.35;;;;;;;15.00;43.90;100380.38;5015827;28;20060;-57
2021/12/07 14:37:30;;;;;;;16.85;8.90;;;;;;;14.99;43.31;100382.31;5015324;28;20060;-56
2021/12/07 14:40:15;;;;;;;11.68;6.65;;;;;;;15.08;43.73;100390.38;5015643;28;20053;-56
2021/12/07 14:43:00;;;;;;;11.10;5.57;;;;;;;15.14;44.29;100391.69;5015925;28;20389;-57
2021/12/07 14:45:45;;;;;;;11.07;5.95;;;;;;;15.15;44.33;100393.28;5015376;28;20061;-56
2021/12/07 14:48:30;;;;;;;;;;;;;;;15.23;44.23;100400.53;5015717;28;20053;-56
2021/12/07 14:51:27;;;;;;;9.77;5.20;;;;;;;15.22;43.51;100400.88;5015564;28;19913;-56